Mc Intosh, Florida
Current Conditions -  °F | °C
As of 9:25 AM on Thursday 30 Oct 2014 (Local Time) from KGNV Reporting Station
Moderate Fog Moderate Fog  
Wind Chill: 65°   Ceiling: 200
Heat Index: 65°   Visibility: 0.5mi
Dew Point: 65°   Wind: 5mph
Humidity: 100%   Direction: 20°NNE
Pressure: 30"   Gusts: NA
Location:  29.4411°N, 82.2461°W
Report Text: KGNV 301325Z 02004KT 1/2SM FG VV002 18/18 A3000 RMK AO2 T01830183
Loading
Personal Weather Stations






























Interactive Weather Map
Tropical Storm Tracking
New forecast layout! Learn more

10-Day Weather Forecast

Advertisements
Track Severe Weather on mobile